Time;durP1;ratioP1;P1;durP2;ratioP2;P2;SDS_P1;SDS_P2;PMS_P1;PMS_P2;Temp;Humidity;BMP_temperature;BMP_pressure;BME280_temperature;BME280_humidity;BME280_pressure;Samples;Min_cycle;Max_cycle;Signal;HPM_P1;HPM_P2
2021/10/21 00:02:03;;;;;;;0.70;0.10;;;;;;;;;;5071658;28;20025;-57
2021/10/21 00:04:29;;;;;;;0.15;0.10;;;;;;;;;;5071445;28;21205;-55
2021/10/21 00:06:54;;;;;;;0.20;0.20;;;;;;;;;;5071257;28;20017;-57
2021/10/21 00:09:19;;;;;;;0.13;0.10;;;;;;;;;;5071688;28;20119;-56
2021/10/21 00:11:44;;;;;;;0.22;0.15;;;;;;;;;;5072313;28;20433;-57
2021/10/21 00:14:10;;;;;;;1.67;0.30;;;;;;;;;;5071194;28;20484;-57
2021/10/21 00:16:35;;;;;;;0.17;0.17;;;;;;;;;;5071481;28;20032;-57
2021/10/21 00:19:00;;;;;;;1.58;0.55;;;;;;;;;;5071604;28;20028;-56
2021/10/21 00:21:26;;;;;;;1.10;0.20;;;;;;;;;;5071020;28;20020;-56
2021/10/21 00:23:51;;;;;;;1.70;0.10;;;;;;;;;;5071808;28;20027;-56
2021/10/21 00:26:16;;;;;;;0.45;0.15;;;;;;;;;;5068991;28;20024;-56
2021/10/21 00:28:41;;;;;;;0.28;0.15;;;;;;;;;;5070901;28;20111;-53
2021/10/21 00:31:06;;;;;;;0.10;0.10;;;;;;;;;;5071914;28;20111;-56
2021/10/21 00:33:32;;;;;;;0.40;0.20;;;;;;;;;;5071722;28;20555;-56
2021/10/21 00:35:58;;;;;;;0.10;0.10;;;;;;;;;;5071515;28;20028;-56
2021/10/21 00:38:23;;;;;;;0.90;0.20;;;;;;;;;;5072115;28;20066;-56
2021/10/21 00:40:48;;;;;;;0.30;0.15;;;;;;;;;;5052148;28;20791;-54
2021/10/21 00:43:14;;;;;;;0.20;0.20;;;;;;;;;;5071120;28;20112;-56
2021/10/21 00:45:39;;;;;;;0.98;0.10;;;;;;;;;;5071011;28;20025;-54
2021/10/21 00:48:05;;;;;;;0.95;0.20;;;;;;;;;;5071583;28;20078;-54
2021/10/21 00:50:31;;;;;;;1.10;0.20;;;;;;;;;;5070978;28;20489;-56
2021/10/21 00:52:57;;;;;;;0.20;0.10;;;;;;;;;;5071064;28;20507;-56
2021/10/21 00:55:23;;;;;;;0.10;0.10;;;;;;;;;;5069714;28;20063;-54
2021/10/21 00:57:48;;;;;;;0.85;0.30;;;;;;;;;;5069498;28;20492;-57
2021/10/21 01:00:14;;;;;;;0.73;0.30;;;;;;;;;;5074004;28;20012;-55
2021/10/21 01:02:39;;;;;;;0.35;0.30;;;;;;;;;;5075365;28;20388;-55
2021/10/21 01:05:05;;;;;;;1.20;0.25;;;;;;;;;;5074498;28;20499;-56
2021/10/21 01:07:30;;;;;;;0.57;0.35;;;;;;;;;;5074743;28;20023;-57
2021/10/21 01:09:56;;;;;;;0.40;0.20;;;;;;;;;;5074785;28;20028;-56
2021/10/21 01:12:21;;;;;;;1.02;0.40;;;;;;;;;;5074786;28;20111;-54
2021/10/21 01:14:46;;;;;;;0.93;0.20;;;;;;;;;;5074053;28;20024;-56
2021/10/21 01:17:15;;;;;;;0.82;0.30;;;;;;;;;;5074268;28;20402;-56
2021/10/21 01:19:40;;;;;;;0.77;0.47;;;;;;;;;;5075059;28;20146;-57
2021/10/21 01:22:05;;;;;;;0.50;0.40;;;;;;;;;;5072059;28;20062;-55
2021/10/21 01:24:31;;;;;;;0.70;0.50;;;;;;;;;;5065666;28;20623;-57
2021/10/21 01:26:56;;;;;;;0.75;0.63;;;;;;;;;;5070548;28;20037;-57
2021/10/21 01:29:22;;;;;;;0.80;0.32;;;;;;;;;;5073873;28;20060;-56
2021/10/21 01:31:48;;;;;;;0.90;0.60;;;;;;;;;;5080480;28;20069;-56
2021/10/21 01:34:14;;;;;;;0.88;0.50;;;;;;;;;;5074130;28;20025;-57
2021/10/21 01:36:39;;;;;;;0.70;0.47;;;;;;;;;;5074147;28;20052;-56
2021/10/21 01:39:06;;;;;;;0.50;0.30;;;;;;;;;;5073188;28;20028;-56
2021/10/21 01:41:31;;;;;;;1.38;0.47;;;;;;;;;;5074626;28;20496;-57
2021/10/21 01:43:57;;;;;;;1.30;0.70;;;;;;;;;;5069902;28;20025;-57
2021/10/21 01:46:22;;;;;;;0.60;0.60;;;;;;;;;;5073965;28;20070;-56
2021/10/21 01:48:47;;;;;;;1.50;0.52;;;;;;;;;;5074088;28;20591;-57
2021/10/21 01:51:13;;;;;;;2.25;0.50;;;;;;;;;;5074365;28;20021;-56
2021/10/21 01:53:38;;;;;;;0.85;0.70;;;;;;;;;;5071862;28;20098;-55
2021/10/21 01:56:04;;;;;;;2.65;0.57;;;;;;;;;;5071879;28;20043;-57
2021/10/21 01:58:29;;;;;;;6.72;0.90;;;;;;;;;;5072259;28;20404;-57
2021/10/21 02:00:54;;;;;;;1.13;0.65;;;;;;;;;;5072391;28;20408;-56
2021/10/21 02:03:19;;;;;;;1.50;0.63;;;;;;;;;;5073904;28;20448;-56
2021/10/21 02:05:44;;;;;;;1.98;1.67;;;;;;;;;;5073813;28;20032;-57
2021/10/21 02:08:10;;;;;;;1.77;1.00;;;;;;;;;;5074287;28;20520;-55
2021/10/21 02:10:36;;;;;;;1.58;1.33;;;;;;;;;;5073051;28;20013;-56
2021/10/21 02:13:01;;;;;;;2.08;1.27;;;;;;;;;;5073126;28;20032;-57
2021/10/21 02:15:26;;;;;;;1.45;0.73;;;;;;;;;;5072871;28;20029;-57
2021/10/21 02:17:51;;;;;;;2.75;1.33;;;;;;;;;;5072795;28;20025;-55
2021/10/21 02:20:17;;;;;;;1.63;1.10;;;;;;;;;;5073916;28;20024;-57
2021/10/21 02:22:43;;;;;;;1.60;1.50;;;;;;;;;;5072807;28;20468;-56
2021/10/21 02:25:10;;;;;;;1.45;1.23;;;;;;;;;;5073391;28;20029;-56
2021/10/21 02:27:35;;;;;;;1.98;1.40;;;;;;;;;;5074265;28;20055;-55
2021/10/21 02:30:00;;;;;;;5.65;1.33;;;;;;;;;;5077432;28;20032;-56
2021/10/21 02:32:26;;;;;;;3.15;2.10;;;;;;;;;;5073147;28;20024;-56
2021/10/21 02:34:51;;;;;;;3.55;2.60;;;;;;;;;;5072700;28;20418;-55
2021/10/21 02:37:16;;;;;;;4.28;2.85;;;;;;;;;;5073199;28;20091;-55
2021/10/21 02:39:41;;;;;;;2.92;2.03;;;;;;;;;;5073409;28;20025;-55
2021/10/21 02:42:07;;;;;;;1.83;1.50;;;;;;;;;;5072974;28;20025;-55
2021/10/21 02:44:32;;;;;;;2.22;1.83;;;;;;;;;;5072285;28;20121;-55
2021/10/21 02:46:57;;;;;;;1.77;1.20;;;;;;;;;;5072433;28;20123;-54
2021/10/21 02:49:22;;;;;;;1.02;0.93;;;;;;;;;;5072998;28;20066;-54
2021/10/21 02:51:47;;;;;;;1.20;0.63;;;;;;;;;;5072306;28;20071;-55
2021/10/21 02:54:13;;;;;;;0.73;0.52;;;;;;;;;;5072318;28;20046;-55
2021/10/21 02:56:38;;;;;;;0.68;0.40;;;;;;;;;;5070368;28;20028;-55
2021/10/21 02:59:03;;;;;;;0.98;0.50;;;;;;;;;;5072818;28;20071;-53
2021/10/21 03:01:28;;;;;;;0.30;0.30;;;;;;;;;;5072579;28;20424;-56
2021/10/21 03:03:54;;;;;;;0.40;0.20;;;;;;;;;;5072223;28;20047;-55
2021/10/21 03:06:19;;;;;;;0.32;0.20;;;;;;;;;;5072042;28;20063;-56
2021/10/21 03:08:44;;;;;;;0.20;0.10;;;;;;;;;;5072400;28;20035;-56
2021/10/21 03:11:09;;;;;;;0.28;0.10;;;;;;;;;;5072591;28;20028;-57
2021/10/21 03:13:34;;;;;;;0.40;0.10;;;;;;;;;;5071827;28;20029;-56
2021/10/21 03:16:00;;;;;;;0.20;0.10;;;;;;;;;;5072051;28;20400;-55
2021/10/21 03:18:26;;;;;;;1.38;0.10;;;;;;;;;;5072464;28;20377;-55
2021/10/21 03:20:51;;;;;;;0.10;0.10;;;;;;;;;;5071913;28;20027;-55
2021/10/21 03:23:19;;;;;;;0.17;0.10;;;;;;;;;;5070138;28;20377;-57
2021/10/21 03:25:44;;;;;;;0.30;0.13;;;;;;;;;;5070414;28;20025;-56
2021/10/21 03:28:09;;;;;;;0.10;0.10;;;;;;;;;;5069750;28;20492;-50
2021/10/21 03:30:34;;;;;;;0.10;0.10;;;;;;;;;;5072035;28;20024;-56
2021/10/21 03:33:00;;;;;;;0.20;0.10;;;;;;;;;;5071460;28;20107;-56
2021/10/21 03:35:25;;;;;;;0.17;0.10;;;;;;;;;;5071703;28;20036;-58
2021/10/21 03:37:50;;;;;;;0.40;0.40;;;;;;;;;;5071403;28;20028;-55
2021/10/21 03:40:15;;;;;;;0.20;0.10;;;;;;;;;;5072505;28;20082;-56
2021/10/21 03:42:41;;;;;;;0.20;0.10;;;;;;;;;;5071698;28;20016;-53
2021/10/21 03:45:06;;;;;;;1.48;0.20;;;;;;;;;;5070516;28;20020;-57
2021/10/21 03:47:31;;;;;;;2.17;0.13;;;;;;;;;;5071605;28;20036;-55
2021/10/21 03:49:56;;;;;;;0.47;0.10;;;;;;;;;;5071853;28;20044;-57
2021/10/21 03:52:22;;;;;;;0.45;0.10;;;;;;;;;;5070526;28;20036;-56
2021/10/21 03:54:48;;;;;;;0.52;0.10;;;;;;;;;;5072085;28;20028;-56
2021/10/21 03:57:13;;;;;;;0.30;0.10;;;;;;;;;;5069913;28;20036;-55
2021/10/21 03:59:39;;;;;;;0.60;0.10;;;;;;;;;;5071072;28;20507;-56
2021/10/21 04:02:04;;;;;;;0.10;0.10;;;;;;;;;;5071720;28;20025;-55
2021/10/21 04:04:29;;;;;;;0.50;0.10;;;;;;;;;;5072172;28;20032;-57
2021/10/21 04:06:54;;;;;;;0.50;0.10;;;;;;;;;;5071874;28;20021;-56
2021/10/21 04:09:20;;;;;;;0.32;0.20;;;;;;;;;;5071615;28;20484;-54
2021/10/21 04:11:45;;;;;;;0.68;0.10;;;;;;;;;;5072211;28;20349;-57
2021/10/21 04:14:10;;;;;;;0.50;0.10;;;;;;;;;;5071140;28;20032;-54
2021/10/21 04:16:35;;;;;;;1.13;0.13;;;;;;;;;;5071791;28;20275;-55
2021/10/21 04:19:00;;;;;;;0.20;0.10;;;;;;;;;;5071391;28;20441;-55
2021/10/21 04:21:26;;;;;;;1.10;0.10;;;;;;;;;;5071207;28;20029;-54
2021/10/21 04:23:51;;;;;;;0.10;0.10;;;;;;;;;;5070909;28;20074;-56
2021/10/21 04:26:16;;;;;;;0.20;0.10;;;;;;;;;;5068060;28;20051;-55
2021/10/21 04:28:42;;;;;;;0.50;0.10;;;;;;;;;;5070154;28;20055;-56
2021/10/21 04:31:08;;;;;;;0.20;0.10;;;;;;;;;;5070012;28;20526;-57
2021/10/21 04:33:33;;;;;;;0.10;0.10;;;;;;;;;;5062032;28;20032;-54
2021/10/21 04:35:58;;;;;;;1.20;0.20;;;;;;;;;;5074627;28;20163;-52
2021/10/21 04:38:24;;;;;;;1.38;0.20;;;;;;;;;;5075089;28;20044;-56
2021/10/21 04:40:49;;;;;;;0.30;0.25;;;;;;;;;;5075531;28;20018;-56
2021/10/21 04:43:14;;;;;;;0.30;0.10;;;;;;;;;;5074447;28;20021;-55
2021/10/21 04:45:39;;;;;;;1.13;0.20;;;;;;;;;;5074696;28;20031;-56
2021/10/21 04:48:05;;;;;;;0.40;0.20;;;;;;;;;;5075161;28;20016;-58
2021/10/21 04:50:30;;;;;;;0.88;0.10;;;;;;;;;;5074881;28;20027;-58
2021/10/21 04:52:55;;;;;;;1.20;0.10;;;;;;;;;;5073945;28;20024;-56
2021/10/21 04:55:22;;;;;;;0.25;0.10;;;;;;;;;;5074271;28;20031;-57
2021/10/21 04:57:48;;;;;;;0.32;0.20;;;;;;;;;;5071466;28;20024;-56
2021/10/21 05:00:14;;;;;;;0.20;0.10;;;;;;;;;;5074751;28;20021;-57
2021/10/21 05:02:39;;;;;;;0.55;0.10;;;;;;;;;;5074725;28;20107;-56
2021/10/21 05:05:04;;;;;;;2.40;0.17;;;;;;;;;;5073682;28;20516;-56
2021/10/21 05:07:29;;;;;;;0.10;0.10;;;;;;;;;;5074523;28;20042;-57
2021/10/21 05:09:55;;;;;;;0.20;0.20;;;;;;;;;;5074505;28;20028;-56
2021/10/21 05:12:20;;;;;;;1.02;0.20;;;;;;;;;;5074485;28;20029;-55
2021/10/21 05:14:45;;;;;;;0.20;0.10;;;;;;;;;;5073370;28;20039;-56
2021/10/21 05:17:10;;;;;;;0.28;0.10;;;;;;;;;;5074728;28;20021;-55
2021/10/21 05:19:36;;;;;;;0.20;0.10;;;;;;;;;;5074894;28;20103;-54
2021/10/21 05:22:01;;;;;;;0.10;0.10;;;;;;;;;;5074164;28;20016;-56
2021/10/21 05:24:26;;;;;;;0.17;0.10;;;;;;;;;;5072984;28;20373;-55
2021/10/21 05:26:51;;;;;;;2.10;0.10;;;;;;;;;;5072478;28;20041;-55
2021/10/21 05:29:16;;;;;;;0.50;0.10;;;;;;;;;;5070948;28;20137;-56
2021/10/21 05:31:42;;;;;;;1.27;0.10;;;;;;;;;;5072640;28;20017;-56
2021/10/21 05:34:08;;;;;;;0.70;0.20;;;;;;;;;;5072916;28;20028;-56
2021/10/21 05:36:33;;;;;;;1.63;0.20;;;;;;;;;;5072362;28;20037;-54
2021/10/21 05:38:58;;;;;;;3.33;0.20;;;;;;;;;;5073116;28;20029;-57
2021/10/21 05:41:23;;;;;;;2.05;0.22;;;;;;;;;;5073346;28;20432;-57
2021/10/21 05:43:49;;;;;;;1.00;0.22;;;;;;;;;;5070572;28;20053;-58
2021/10/21 05:46:14;;;;;;;0.60;0.15;;;;;;;;;;5072336;28;20025;-58
2021/10/21 05:48:39;;;;;;;0.43;0.20;;;;;;;;;;5072658;28;20082;-55
2021/10/21 05:51:04;;;;;;;1.17;0.20;;;;;;;;;;5073115;28;20028;-54
2021/10/21 05:53:29;;;;;;;0.85;0.73;;;;;;;;;;5072395;28;20116;-54
2021/10/21 05:55:55;;;;;;;1.20;0.10;;;;;;;;;;5071563;28;20028;-54
2021/10/21 05:58:20;;;;;;;0.73;0.30;;;;;;;;;;5072242;28;20024;-51
2021/10/21 06:00:45;;;;;;;1.10;0.20;;;;;;;;;;5072979;28;20028;-57
2021/10/21 06:03:11;;;;;;;1.23;0.20;;;;;;;;;;5072373;28;20046;-54
2021/10/21 06:05:36;;;;;;;0.60;0.20;;;;;;;;;;5071594;28;20036;-57
2021/10/21 06:08:02;;;;;;;0.98;0.25;;;;;;;;;;5072396;28;20052;-57
2021/10/21 06:10:27;;;;;;;1.60;0.25;;;;;;;;;;5072934;28;20056;-57
2021/10/21 06:12:52;;;;;;;0.80;0.10;;;;;;;;;;5071056;28;20103;-56
2021/10/21 06:15:18;;;;;;;1.23;0.10;;;;;;;;;;5069891;28;20401;-55
2021/10/21 06:17:44;;;;;;;0.43;0.00;;;;;;;;;;5072071;28;20112;-56
2021/10/21 06:20:13;;;;;;;0.10;0.10;;;;;;;;;;5070888;28;20504;-56
2021/10/21 06:22:38;;;;;;;1.15;0.13;;;;;;;;;;5071629;28;20540;-57
2021/10/21 06:25:07;;;;;;;0.35;0.10;;;;;;;;;;5072270;28;20111;-56
2021/10/21 06:27:32;;;;;;;0.22;0.00;;;;;;;;;;5024252;28;1073128;-54
2021/10/21 06:29:57;;;;;;;0.10;0.10;;;;;;;;;;5072595;28;20028;-55
2021/10/21 06:32:22;;;;;;;1.90;0.30;;;;;;;;;;5071698;28;20121;-55
2021/10/21 06:34:48;;;;;;;0.80;0.10;;;;;;;;;;5070003;28;20362;-55
2021/10/21 06:37:13;;;;;;;0.95;0.17;;;;;;;;;;5070939;28;20020;-57
2021/10/21 06:39:38;;;;;;;0.85;0.10;;;;;;;;;;5072800;28;20029;-58
2021/10/21 06:42:03;;;;;;;0.52;0.20;;;;;;;;;;5072313;28;20020;-56
2021/10/21 06:44:28;;;;;;;1.33;0.15;;;;;;;;;;5063452;28;20502;-58
2021/10/21 06:46:54;;;;;;;0.60;0.00;;;;;;;;;;5071072;28;20495;-58
2021/10/21 06:49:19;;;;;;;1.38;0.20;;;;;;;;;;5073227;28;20038;-56
2021/10/21 06:51:44;;;;;;;0.82;0.10;;;;;;;;;;5072932;28;20021;-58
2021/10/21 06:54:09;;;;;;;1.05;0.10;;;;;;;;;;5072275;28;20028;-56
2021/10/21 06:56:35;;;;;;;1.42;0.22;;;;;;;;;;5067094;28;20024;-57
2021/10/21 06:59:00;;;;;;;2.33;0.20;;;;;;;;;;5071063;28;20029;-57
2021/10/21 07:01:26;;;;;;;0.68;0.00;;;;;;;;;;5072049;28;20028;-58
2021/10/21 07:03:51;;;;;;;2.10;0.10;;;;;;;;;;5072239;28;20020;-56
2021/10/21 07:06:16;;;;;;;2.25;0.00;;;;;;;;;;5072255;28;20025;-58
2021/10/21 07:08:41;;;;;;;0.40;0.17;;;;;;;;;;5070745;28;20024;-58
2021/10/21 07:11:08;;;;;;;1.08;0.10;;;;;;;;;;5071937;28;20019;-58
2021/10/21 07:13:33;;;;;;;2.80;0.30;;;;;;;;;;5072236;28;20024;-59
2021/10/21 07:15:59;;;;;;;0.93;0.03;;;;;;;;;;5071970;28;20039;-58
2021/10/21 07:18:24;;;;;;;1.60;0.10;;;;;;;;;;5071032;28;20020;-58
2021/10/21 07:20:49;;;;;;;1.48;0.10;;;;;;;;;;5073073;28;20298;-56
2021/10/21 07:23:14;;;;;;;2.35;0.10;;;;;;;;;;5071521;28;20472;-58
2021/10/21 07:25:39;;;;;;;2.92;0.17;;;;;;;;;;5068882;28;20049;-56
2021/10/21 07:28:05;;;;;;;1.02;0.10;;;;;;;;;;5065895;28;20055;-55
2021/10/21 07:30:30;;;;;;;7.88;0.28;;;;;;;;;;5070821;28;20021;-57
2021/10/21 07:32:58;;;;;;;3.55;0.20;;;;;;;;;;5071419;28;20047;-59
2021/10/21 07:35:24;;;;;;;2.47;0.20;;;;;;;;;;5071780;28;20060;-57
2021/10/21 07:37:49;;;;;;;2.10;0.30;;;;;;;;;;5070483;28;20100;-57
2021/10/21 07:40:14;;;;;;;2.90;0.40;;;;;;;;;;5071783;28;20473;-56
2021/10/21 07:42:40;;;;;;;6.05;0.40;;;;;;;;;;5071875;28;20039;-58
2021/10/21 07:45:07;;;;;;;4.72;0.60;;;;;;;;;;5071163;28;20430;-57
2021/10/21 07:47:32;;;;;;;4.15;0.57;;;;;;;;;;5070824;28;20024;-55
2021/10/21 07:49:57;;;;;;;5.28;0.40;;;;;;;;;;5071216;28;20036;-57
2021/10/21 07:52:23;;;;;;;2.00;0.17;;;;;;;;;;5069457;28;20036;-56
2021/10/21 07:54:48;;;;;;;5.68;0.85;;;;;;;;;;5071435;28;20074;-56
2021/10/21 07:57:14;;;;;;;6.68;0.43;;;;;;;;;;5066315;28;20017;-56
2021/10/21 07:59:40;;;;;;;3.28;0.60;;;;;;;;;;5070251;28;20031;-56
2021/10/21 08:02:05;;;;;;;5.00;0.20;;;;;;;;;;5070919;28;20016;-55
2021/10/21 08:04:34;;;;;;;1.52;0.30;;;;;;;;;;5071449;28;20024;-57
2021/10/21 08:06:59;;;;;;;2.70;0.50;;;;;;;;;;5071010;28;20024;-55
2021/10/21 08:09:25;;;;;;;2.95;0.50;;;;;;;;;;5070933;28;20093;-58
2021/10/21 08:11:52;;;;;;;0.70;0.20;;;;;;;;;;5070871;28;20021;-58
2021/10/21 08:14:18;;;;;;;4.57;0.28;;;;;;;;;;5067077;28;20052;-56
2021/10/21 08:16:44;;;;;;;4.03;0.50;;;;;;;;;;5062299;28;20070;-55
2021/10/21 08:19:10;;;;;;;6.07;0.35;;;;;;;;;;5071808;28;20016;-58
2021/10/21 08:21:35;;;;;;;2.53;0.50;;;;;;;;;;5069112;28;20446;-57
2021/10/21 08:24:04;;;;;;;9.45;1.02;;;;;;;;;;5068142;28;20020;-56
2021/10/21 08:26:29;;;;;;;3.00;0.30;;;;;;;;;;5066556;28;20037;-56
2021/10/21 08:28:55;;;;;;;1.73;0.30;;;;;;;;;;5070569;28;20031;-56
2021/10/21 08:31:20;;;;;;;3.58;0.47;;;;;;;;;;5070760;28;20366;-57
2021/10/21 08:33:45;;;;;;;4.57;0.20;;;;;;;;;;5070040;28;20082;-57
2021/10/21 08:36:14;;;;;;;9.68;0.43;;;;;;;;;;5070118;28;20037;-58
2021/10/21 08:38:39;;;;;;;4.40;0.32;;;;;;;;;;5071850;28;20027;-57
2021/10/21 08:41:07;;;;;;;3.00;0.20;;;;;;;;;;5071417;28;20021;-57
2021/10/21 08:43:32;;;;;;;6.10;0.43;;;;;;;;;;5071026;28;20024;-57
2021/10/21 08:45:58;;;;;;;4.45;0.30;;;;;;;;;;5069103;28;20108;-56
2021/10/21 08:48:23;;;;;;;4.25;0.40;;;;;;;;;;5069129;28;20126;-52
2021/10/21 08:50:49;;;;;;;1.85;0.40;;;;;;;;;;5070559;28;20034;-58
2021/10/21 08:53:14;;;;;;;1.63;0.20;;;;;;;;;;5068481;28;20021;-56
2021/10/21 08:55:40;;;;;;;1.88;0.20;;;;;;;;;;5067286;28;20381;-56
2021/10/21 08:58:06;;;;;;;2.63;0.30;;;;;;;;;;5060890;28;20021;-56
2021/10/21 09:00:33;;;;;;;7.40;0.30;;;;;;;;;;5065500;28;20075;-57
2021/10/21 09:03:02;;;;;;;1.83;0.17;;;;;;;;;;5065051;28;20092;-56
2021/10/21 09:08:22;;;;;;;3.60;0.85;;;;;;;;;;5066675;28;20236;-57
2021/10/21 09:10:48;;;;;;;3.88;0.43;;;;;;;;;;5066521;28;20477;-57
2021/10/21 09:13:29;;;;;;;4.82;0.32;;;;;;;;;;5058201;28;20489;-58
2021/10/21 09:15:58;;;;;;;7.45;0.35;;;;;;;;;;5065257;28;20115;-55
2021/10/21 09:18:25;;;;;;;2.30;0.17;;;;;;;;;;5066543;28;20020;-54
2021/10/21 09:20:50;;;;;;;5.97;0.30;;;;;;;;;;5059800;28;20047;-55
2021/10/21 09:23:16;;;;;;;2.72;0.47;;;;;;;;;;5072484;28;20457;-57
2021/10/21 09:25:43;;;;;;;4.63;0.30;;;;;;;;;;5072208;28;20039;-56
2021/10/21 09:28:23;;;;;;;4.88;0.50;;;;;;;;;;5057866;28;20058;-57
2021/10/21 09:30:53;;;;;;;3.17;0.15;;;;;;;;;;5072313;28;20414;-59
2021/10/21 09:33:18;;;;;;;1.80;0.30;;;;;;;;;;5071020;28;20025;-57
2021/10/21 09:35:54;;;;;;;7.93;0.25;;;;;;;;;;5072572;28;20137;-54
2021/10/21 09:38:19;;;;;;;4.65;0.25;;;;;;;;;;5069791;28;20043;-56
2021/10/21 09:40:44;;;;;;;0.93;0.38;;;;;;;;;;5062046;28;20473;-55
2021/10/21 09:43:14;;;;;;;3.05;0.25;;;;;;;;;;5059455;28;20024;-57
2021/10/21 09:45:41;;;;;;;2.92;0.20;;;;;;;;;;5069314;28;20480;-59
2021/10/21 09:48:08;;;;;;;3.35;0.22;;;;;;;;;;5071169;28;20028;-57
2021/10/21 09:50:36;;;;;;;1.35;0.20;;;;;;;;;;5069886;28;20027;-56
2021/10/21 09:53:03;;;;;;;7.15;0.35;;;;;;;;;;5069424;28;20013;-58
2021/10/21 09:55:28;;;;;;;2.40;0.17;;;;;;;;;;5068980;28;20078;-56
2021/10/21 09:57:58;;;;;;;0.55;0.00;;;;;;;;;;5068890;28;20635;-58
2021/10/21 10:00:23;;;;;;;2.55;0.10;;;;;;;;;;5071499;28;20590;-58
2021/10/21 10:02:49;;;;;;;0.98;0.10;;;;;;;;;;5071716;28;20112;-57
2021/10/21 10:05:16;;;;;;;1.10;0.10;;;;;;;;;;5070487;28;20036;-57
2021/10/21 10:07:42;;;;;;;2.75;0.10;;;;;;;;;;5065997;28;20043;-57
2021/10/21 10:10:07;;;;;;;1.42;0.50;;;;;;;;;;5072379;28;20039;-57
2021/10/21 10:12:33;;;;;;;3.28;0.10;;;;;;;;;;5072241;28;20024;-57
2021/10/21 10:14:58;;;;;;;0.88;0.10;;;;;;;;;;5071981;28;20016;-56
2021/10/21 10:17:24;;;;;;;1.58;0.10;;;;;;;;;;5072598;28;20808;-57
2021/10/21 10:19:50;;;;;;;1.40;0.00;;;;;;;;;;5071833;28;20016;-56
2021/10/21 10:22:19;;;;;;;2.08;0.10;;;;;;;;;;5071935;28;20020;-55
2021/10/21 10:24:45;;;;;;;0.85;0.10;;;;;;;;;;5071608;28;20125;-56
2021/10/21 10:27:18;;;;;;;0.93;0.00;;;;;;;;;;5064989;28;20057;-58
2021/10/21 10:29:45;;;;;;;0.57;0.00;;;;;;;;;;5064082;28;20028;-58
2021/10/21 10:32:31;;;;;;;0.95;0.00;;;;;;;;;;5069221;28;20020;-55
2021/10/21 10:34:56;;;;;;;;;;;;;;;;;;5071428;28;20083;-57
2021/10/21 10:37:21;;;;;;;2.10;0.10;;;;;;;;;;5070785;28;19916;-55
2021/10/21 10:39:50;;;;;;;1.02;0.00;;;;;;;;;;5072819;28;20027;-55
2021/10/21 10:42:16;;;;;;;4.22;0.10;;;;;;;;;;5071074;28;20025;-56
2021/10/21 10:44:41;;;;;;;0.57;0.00;;;;;;;;;;5066016;28;20073;-58
2021/10/21 10:47:07;;;;;;;1.55;0.08;;;;;;;;;;5063692;28;20101;-58
2021/10/21 10:49:42;;;;;;;2.97;0.10;;;;;;;;;;5070973;28;20016;-55
2021/10/21 10:52:09;;;;;;;6.15;0.10;;;;;;;;;;5071100;28;20020;-57
2021/10/21 10:54:43;;;;;;;4.47;0.25;;;;;;;;;;5071280;28;20127;-56
2021/10/21 10:57:13;;;;;;;1.60;0.00;;;;;;;;;;5063586;28;20021;-56
2021/10/21 10:59:39;;;;;;;0.77;0.00;;;;;;;;;;5069292;28;20047;-56
2021/10/21 11:02:22;;;;;;;2.10;0.10;;;;;;;;;;5066466;28;20521;-56
2021/10/21 11:04:53;;;;;;;1.92;0.03;;;;;;;;;;5069615;28;20029;-57
2021/10/21 11:07:19;;;;;;;1.67;0.00;;;;;;;;;;5071026;28;20099;-55
2021/10/21 11:09:45;;;;;;;1.25;0.00;;;;;;;;;;5065946;28;20028;-56
2021/10/21 11:12:16;;;;;;;1.67;0.10;;;;;;;;;;5074316;28;20036;-57
2021/10/21 11:14:47;;;;;;;2.38;0.10;;;;;;;;;;5063384;28;20493;-56
2021/10/21 11:17:13;;;;;;;0.00;0.00;;;;;;;;;;5070796;28;20017;-57
2021/10/21 11:19:48;;;;;;;1.13;0.00;;;;;;;;;;5070490;28;20021;-58
2021/10/21 11:22:16;;;;;;;1.02;0.00;;;;;;;;;;5068961;28;20017;-57
2021/10/21 11:24:45;;;;;;;0.63;0.00;;;;;;;;;;5063859;28;20025;-58
2021/10/21 11:27:10;;;;;;;0.15;0.00;;;;;;;;;;5061071;28;20564;-57
2021/10/21 11:29:36;;;;;;;0.17;0.00;;;;;;;;;;5068673;28;20104;-56
2021/10/21 11:32:01;;;;;;;0.17;0.00;;;;;;;;;;5069637;28;20468;-56
2021/10/21 11:34:28;;;;;;;0.75;0.00;;;;;;;;;;5069683;28;20103;-56
2021/10/21 11:36:53;;;;;;;0.00;0.00;;;;;;;;;;5070142;28;20016;-57
2021/10/21 11:39:28;;;;;;;0.57;0.00;;;;;;;;;;5069881;28;20036;-58
2021/10/21 11:41:53;;;;;;;1.30;0.00;;;;;;;;;;5065977;28;20158;-57
2021/10/21 11:44:18;;;;;;;0.05;0.00;;;;;;;;;;5065294;28;20111;-57
2021/10/21 11:46:43;;;;;;;0.57;0.05;;;;;;;;;;5068628;28;20142;-58
2021/10/21 11:49:09;;;;;;;0.08;0.00;;;;;;;;;;5065470;28;20043;-56
2021/10/21 11:51:34;;;;;;;0.80;0.00;;;;;;;;;;5063803;28;20028;-58
2021/10/21 11:54:06;;;;;;;0.50;0.00;;;;;;;;;;5070711;28;20046;-56
2021/10/21 11:56:31;;;;;;;1.65;0.00;;;;;;;;;;5066011;28;20036;-57
2021/10/21 11:59:00;;;;;;;1.00;0.00;;;;;;;;;;5069871;28;20103;-54
2021/10/21 12:01:25;;;;;;;0.17;0.10;;;;;;;;;;5070191;28;20036;-54
2021/10/21 12:03:51;;;;;;;0.00;0.00;;;;;;;;;;5066202;28;20016;-54
2021/10/21 12:06:17;;;;;;;0.45;0.00;;;;;;;;;;5067274;28;20024;-55
2021/10/21 12:08:50;;;;;;;0.77;0.00;;;;;;;;;;5068295;28;20024;-56
2021/10/21 12:11:17;;;;;;;0.20;0.00;;;;;;;;;;5069161;28;20028;-55
2021/10/21 12:13:42;;;;;;;4.03;0.00;;;;;;;;;;5069038;28;20024;-56
2021/10/21 12:16:13;;;;;;;0.47;0.05;;;;;;;;;;5069087;28;20074;-56
2021/10/21 12:18:38;;;;;;;0.85;0.00;;;;;;;;;;5069688;28;20108;-57
2021/10/21 12:21:06;;;;;;;0.60;0.10;;;;;;;;;;5069451;28;20103;-55
2021/10/21 12:23:33;;;;;;;1.65;0.03;;;;;;;;;;5069224;28;20020;-56
2021/10/21 12:25:59;;;;;;;2.55;0.10;;;;;;;;;;5066768;28;20039;-55
2021/10/21 12:28:39;;;;;;;2.00;0.13;;;;;;;;;;5067240;28;20052;-56
2021/10/21 12:31:39;;;;;;;2.88;0.10;;;;;;;;;;5069022;28;20024;-55
2021/10/21 12:34:09;;;;;;;0.60;0.13;;;;;;;;;;5027097;28;20386;-55
2021/10/21 12:36:41;;;;;;;1.00;0.30;;;;;;;;;;5045931;28;20052;-57
2021/10/21 12:39:07;;;;;;;1.13;0.10;;;;;;;;;;5047671;28;20185;-57
2021/10/21 12:41:51;;;;;;;0.47;0.10;;;;;;;;;;5047052;28;20060;-55
2021/10/21 12:44:17;;;;;;;2.85;0.93;;;;;;;;;;5045885;28;20032;-57
2021/10/21 12:46:43;;;;;;;6.22;0.10;;;;;;;;;;5047176;28;20103;-54
2021/10/21 12:49:12;;;;;;;0.30;0.00;;;;;;;;;;5047327;28;20505;-57
2021/10/21 12:51:40;;;;;;;1.85;0.20;;;;;;;;;;5047180;28;20036;-57
2021/10/21 12:54:06;;;;;;;1.20;0.05;;;;;;;;;;5046893;28;20040;-53
2021/10/21 12:56:32;;;;;;;1.95;0.10;;;;;;;;;;5046479;28;20212;-57
2021/10/21 12:58:59;;;;;;;0.80;0.17;;;;;;;;;;5047109;28;20021;-51
2021/10/21 13:01:24;;;;;;;1.95;0.10;;;;;;;;;;5051268;28;20037;-56
2021/10/21 13:03:49;;;;;;;1.17;0.10;;;;;;;;;;5049622;28;20039;-56
2021/10/21 13:06:16;;;;;;;0.30;0.10;;;;;;;;;;5050642;28;20119;-55
2021/10/21 13:08:42;;;;;;;1.23;0.03;;;;;;;;;;5068708;28;20098;-56
2021/10/21 13:11:08;;;;;;;1.73;0.10;;;;;;;;;;5074048;28;20453;-56
2021/10/21 13:13:35;;;;;;;1.20;0.10;;;;;;;;;;5073749;28;20115;-56
2021/10/21 13:16:02;;;;;;;1.55;0.10;;;;;;;;;;5071754;28;20038;-57
2021/10/21 13:18:27;;;;;;;0.68;0.00;;;;;;;;;;5073096;28;20052;-58
2021/10/21 13:20:52;;;;;;;0.57;0.10;;;;;;;;;;5072527;28;20018;-54
2021/10/21 13:23:18;;;;;;;2.50;0.10;;;;;;;;;;5073205;28;20021;-56
2021/10/21 13:25:44;;;;;;;2.25;0.20;;;;;;;;;;5071666;28;20437;-57
2021/10/21 13:28:10;;;;;;;0.25;0.10;;;;;;;;;;5070152;28;20056;-55
2021/10/21 13:30:35;;;;;;;0.75;0.20;;;;;;;;;;5072479;28;20029;-55
2021/10/21 13:33:00;;;;;;;0.50;0.10;;;;;;;;;;5070893;28;20053;-56
2021/10/21 13:35:26;;;;;;;0.10;0.00;;;;;;;;;;5069146;28;20029;-56
2021/10/21 13:37:52;;;;;;;1.55;0.10;;;;;;;;;;5071976;28;20539;-56
2021/10/21 13:40:17;;;;;;;0.73;0.00;;;;;;;;;;5064680;28;20040;-55
2021/10/21 13:42:44;;;;;;;0.57;0.10;;;;;;;;;;5071490;28;20020;-58
2021/10/21 13:45:09;;;;;;;2.25;0.10;;;;;;;;;;5070899;28;20025;-57
2021/10/21 13:47:34;;;;;;;0.95;0.22;;;;;;;;;;5072729;28;20036;-53
2021/10/21 13:49:59;;;;;;;1.48;0.10;;;;;;;;;;5073073;28;20137;-57
2021/10/21 13:52:25;;;;;;;1.67;0.10;;;;;;;;;;5071345;28;20097;-57
2021/10/21 13:54:50;;;;;;;0.35;0.00;;;;;;;;;;5070063;28;20028;-57
2021/10/21 13:57:16;;;;;;;0.43;0.05;;;;;;;;;;5068956;28;20031;-56
2021/10/21 13:59:42;;;;;;;0.98;0.13;;;;;;;;;;5072071;28;20056;-56
2021/10/21 14:02:08;;;;;;;1.52;0.15;;;;;;;;;;5070904;28;20025;-57
2021/10/21 14:04:34;;;;;;;3.08;0.20;;;;;;;;;;5072158;28;20032;-54
2021/10/21 14:07:00;;;;;;;0.52;0.05;;;;;;;;;;5071834;28;20392;-57
2021/10/21 14:09:25;;;;;;;0.65;0.08;;;;;;;;;;5068195;28;20328;-56
2021/10/21 14:11:50;;;;;;;1.63;0.10;;;;;;;;;;5071901;28;20116;-56
2021/10/21 14:14:16;;;;;;;1.70;0.10;;;;;;;;;;5065677;28;20131;-56
2021/10/21 14:16:41;;;;;;;1.02;0.10;;;;;;;;;;5072065;28;20060;-55
2021/10/21 14:19:07;;;;;;;1.58;0.10;;;;;;;;;;5071576;28;20021;-56
2021/10/21 14:21:32;;;;;;;2.45;0.10;;;;;;;;;;5071033;28;20358;-56
2021/10/21 14:23:57;;;;;;;1.55;0.10;;;;;;;;;;5072679;28;20032;-54
2021/10/21 14:26:23;;;;;;;0.82;0.10;;;;;;;;;;5066772;28;20057;-56
2021/10/21 14:28:48;;;;;;;0.85;0.10;;;;;;;;;;5068621;28;20044;-61
2021/10/21 14:31:13;;;;;;;1.40;0.10;;;;;;;;;;5071501;28;20448;-64
2021/10/21 14:33:38;;;;;;;0.52;0.32;;;;;;;;;;5072055;28;20028;-62
2021/10/21 14:36:04;;;;;;;1.98;0.22;;;;;;;;;;5071077;28;20031;-63
2021/10/21 14:38:29;;;;;;;1.55;0.40;;;;;;;;;;5071834;28;20079;-63
2021/10/21 14:40:55;;;;;;;0.32;0.10;;;;;;;;;;5071033;28;20029;-62